Latest Observation

65 Stations

10 Minute Data
as of 5/3/26 3:05 PM PDT
Station Date Time Temp (°F) RH (%) Dew Pt (°F) Wind Spd (mph) Wind Dir (°) Wind Gust (mph) Wind Gst Dir (°) Latest Rain (In) Soil Moist (%) Soil Temp (°F) Daily Rain (In) Daily Min Temp (°F) Daily Max Temp (°F) Daily Max Wind (mph)
Hobart Mills 5/3/26 1500 42.6   7.5 83   0 37.8   7.5 3.8   1.7 SW | 221 11.2   7.3 SW | 233 0.02 - 32.0   0.0 0.02 37.5   2.5 61.5   1.5 13.2   0.9
Prosser Dam 5/3/26 1500 46.8   9.2 73   17 38.5   2.0 4.1   0.5 SSW | 196 8.3   1.6 S | 181 0.00 20.7   0.3 48.5   0.6 0.00 39.2   5.7 64.2   0.3 31.6   14.3
West Incline Village 5/3/26 1500 40.1   15.2 83   42 35.3   3.4 3.6   0.4 SE | 135 8.7   0.8 SSE | 152 0.01 30.6   0.1 44.4   0.1 0.02 39.9   3.9 58.5   1.3 28.7   15.9
Incline Village (Fairview Blvd) 5/3/26 1500 41.2   16.3 85   44 37.2   2.9 2.4   1.5 SSW | 210 8.9   4.3 SW | 228 0.06 24.3   0.1 51.9   0.0 0.10 40.0   5.4 60.3   1.7 18.1   10.1
Incline Village (Diamond Peak) 5/3/26 1500 38.2   17.1 88   45 35.0   1.9 5.4   3.9 SSE | 165 13.5   7.5 S | 179 0.01 8.4   0.1 44.7   0.2 0.01 38.1   8.2 54.9   1.2 19.5   12.5
Incline Village (Mill Creek) 5/3/26 1500 42.1   17.3 88   48 38.7   4.1 2.1   0.3 SW | 234 8.1   3.0 WNW | 295 0.04 9.8   0.1 46.1   0.5 0.09 41.5   2.5 59.6   1.0 21.7   15.3
Incline Village (Lakeshore Blvd) 5/3/26 1500 44.6   16.2 83   45 39.9   4.3 3.0   2.4 WSW | 239 6.6   3.7 WNW | 303 0.02 33.9   2.7 55.3   1.2 0.04 44.0   4.4 63.0   1.8 23.7   19.4
Glenbrook 5/3/26 1500 44.8   13.9 75   31 37.3   0.3 5.5   3.0 SW | 234 13.3   6.5 WSW | 238 0.01 44.3   0.0 44.9   0.4 0.04 43.0   2.7 60.2   1.0 21.7   12.0
Zephyr Cove 5/3/26 1500 42.1   20.3 88   55 38.8   6.0 1.3   0.1 SE | 139 1.7   0.0 E | 80 0.00 - 34.3   0.0 0.00 42.1   1.0 60.1   2.8 6.1   1.5
Kingsbury Grade 5/3/26 1500 40.9   19.5 85   52 36.9   5.1 2.6   0.2 SW | 218 13.3   4.0 ESE | 118 0.05 5.5   0.3 54.7   0.3 0.12 40.8   1.0 57.1   4.5 23.8   8.2
South Daggett Pass (Ridge) 5/3/26 1500 39.0   17.3 83   45 34.2   3.7 5.8   2.5 S | 176 22.5   7.6 S | 190 0.03 6.5   0.1 48.5   0.2 0.09 38.8   6.1 53.1   4.9 25.6   6.7
Palomino Valley 5/3/26 1500 72.9   1.4 19   1 27.8   0.4 13.8   3.8 NE | 47 21.9   3.2 NE | 48 0.00 6.7   0.0 63.0   0.2 0.00 49.8   8.0 74.2   0.5 27.3   0.2
East Cold Springs 5/3/26 1500 67.5   3.9 25   10 30.8   4.8 13.1   8.6 NE | 46 20.6   10.6 NE | 50 0.00 1.5   0.0 55.1   0.8 0.00 48.1   0.0 68.0   2.1 21.9   5.3
Peavine 5/3/26 1500 62.8   1.3 27   6 28.8   3.6 3.5   2.8 NNE | 13 8.2   2.0 N | 355 0.00 - 53.4   0.0 0.00 45.6   4.1 63.9   0.4 15.3   1.9
West Verdi Peak 5/3/26 1500 52.6   3.9 48   6 33.4   0.3 11.0   6.5 S | 187 26.8   10.8 SSE | 164 0.00 16.3   0.4 51.1   0.4 0.00 43.6   5.3 65.0   3.5 26.8   10.8
West Verdi 5/3/26 1500 59.2   6.1 41   7 35.8   0.4 14.6   6.4 S | 187 29.8   14.0 SW | 222 0.01 7.7   0.1 59.9   1.2 0.01 47.2   0.5 68.6   1.4 33.4   14.0
South Verdi 5/3/26 1500 54.2   10.3 49   17 35.4   1.8 43.8   33.1 WSW | 248 57.4   40.5 WSW | 248 0.00 16.4   0.4 60.0   1.3 0.00 47.2   1.4 66.0   0.0 57.4   32.9
Northwest Reno 5/3/26 1500 66.8   0.9 26   1 30.6   1.0 21.6   15.2 SE | 130 42.6   32.7 ESE | 121 0.00 23.8   0.4 62.0   1.8 0.00 49.1   2.5 69.6   1.3 42.6   18.4
North Lawton 5/3/26 1500 64.1   1.6 31   3 32.4   0.0 15.3   10.7 SW | 219 40.2   29.6 SSW | 213 0.00 - 39.1   0.0 0.00 48.3   1.8 70.9   3.4 40.2   22.6
West Reno (Mogul) 5/3/26 1500 62.4   4.5 35   6 34.2   0.4 22.9   17.8 SW | 216 45.2   37.0 SW | 221 0.00 38.7   0.2 60.9   0.2 0.00 48.1   0.7 68.9   0.7 45.2   17.1
Caughlin (Hunter Lake Trail) 9/16/25 0800 59.7   3.5 41   11 35.9   2.7 0.0   0.0 N | 0 0.0   0.0 ENE | 66 0.00 15.7   0.0 69.8   0.5 0.00 55.7   3.2 67.7   9.1 9.4   0.9
ArrowCreek 5/3/26 1500 57.6   9.1 49   19 38.5   4.3 30.9   26.4 SSE | 168 45.7   36.9 S | 171 0.11 - 32.0   0.0 0.19 49.0   0.1 69.5   1.9 57.0   28.1
Tracy 5/3/26 1500 72.4   0.1 19   4 28.2   4.6 10.3   4.5 ESE | 113 21.7   8.8 ESE | 111 0.00 8.0   0.0 62.8   0.4 0.00 51.1   3.1 73.8   0.3 23.5   0.2
Virginia Highlands 5/3/26 1500 50.6   12.5 60   27 37.0   4.1 18.5   13.0 S | 172 35.0   23.4 SSE | 163 0.00 7.2   0.0 56.9   0.2 0.00 48.4   3.8 65.1   0.1 41.1   19.5
Virginia City 5/3/26 1500 47.4   14.8 69   37 37.6   5.8 25.0   20.6 S | 183 41.6   31.7 S | 187 0.00 8.4   0.1 54.7   0.3 0.00 46.9   4.1 63.8   0.1 46.7   25.6
Six Mile Canyon 9/9/25 0630 60.2   9.6 37   6 33.7   4.8 4.1   2.5 W | 277 6.1   2.9 WNW | 286 0.00 12.5   0.0 75.5   0.7 0.00 57.9   7.6 64.4   1.9 7.0   3.9
Mt Rose Highway 4/30/26 0510 40.8   4.7 47   13 22.3   1.3 2.3   0.2 WSW | 243 4.8   2.1 WSW | 246 0.00 24.1   0.3 43.0   0.8 0.00 40.5   4.7 43.0   5.3 7.7   0.4
Pleasant Valley 5/3/26 1500 51.8   15.9 65   34 40.4   4.7 23.7   20.7 S | 186 40.1   33.4 S | 175 0.02 2.8   0.0 62.3   0.9 0.04 45.9   0.1 71.1   2.2 44.7   21.5
New Washoe City 5/3/26 1500 50.8   15.8 66   37 39.8   6.5 15.1   11.9 SSW | 208 29.3   23.6 SW | 216 0.00 4.5   0.0 58.4   0.6 0.00 45.0   1.1 68.1   0.6 36.6   18.1
Franktown Creek 5/3/26 1500 48.3   17.3 76   42 41.2   4.7 5.8   2.6 WSW | 252 16.4   5.7 SW | 219 0.02 11.2   0.1 55.8   0.5 0.05 45.5   0.4 67.2   0.2 28.6   5.6
Musgrove Creek 5/3/26 1500 44.3   18.4 78   40 38.0   1.0 5.3   3.5 SW | 216 15.3   8.7 SSW | 192 0.05 40.3   1.3 52.9   0.4 0.28 43.1   6.6 64.0   0.5 24.3   12.3
East Carson 11/23/24 0110 28.6   28.4 - - 4.7   11.0 SW | 220 14.7   10.1 SW | 219 0.02 - 50.9   0.1 0.02 -25.9   79.1 42.9   14.6 16.0   10.7
Kings Canyon 5/3/26 1500 49.6   17.5 72   41 40.8   5.4 6.2   1.2 SSW | 213 14.2   2.7 SW | 230 0.00 15.2   0.2 57.9   1.1 0.02 45.1   0.7 65.4   2.4 29.1   17.6
Carson City (Voltaire Canyon) 5/3/26 1500 50.0   19.4 71   44 40.9   7.4 24.6   18.8 SSW | 193 37.1   24.8 S | 181 0.00 2.8   0.0 62.5   0.0 1.22 49.2   1.6 67.3   2.7 64.8   50.3
Jacks Valley 5/3/26 1500 49.2   19.5 71   45 40.2   7.6 11.3   4.7 SSE | 162 25.6   13.9 SSE | 152 0.01 9.8   0.1 64.7   1.6 0.01 46.1   0.8 67.0   1.9 35.5   22.7
Genoa 5/3/26 1500 52.8   18.5 61   36 39.9   5.6 2.5   0.8 ESE | 112 15.5   5.2 SSE | 157 0.00 5.7   0.2 65.8   3.5 0.02 46.9   0.7 68.0   3.9 19.6   9.3
South Genoa (Walleys Hot Springs) 5/3/26 1500 53.6   17.8 58   33 39.3   5.8 14.4   1.1 S | 185 22.7   2.1 SSW | 196 0.00 13.6   0.1 63.3   0.4 0.04 46.2   3.3 67.3   4.8 37.0   15.4
SW Gardnerville (HWY 88) 5/3/26 1500 51.1   18.5 66   36 40.1   3.1 14.5   3.3 SSW | 194 23.2   3.6 SSW | 209 0.00 3.3   0.2 57.1   0.9 0.02 44.0   1.9 65.0   4.9 48.1   26.7
Sheridan 5/3/26 1500 50.2   21.2 67   42 39.7   5.9 14.7   10.0 SSW | 195 23.6   12.0 S | 186 0.03 2.3   0.1 59.4   0.6 0.09 46.2   0.4 66.6   5.5 38.6   17.5
Ruhenstroth 5/3/26 1500 49.1   21.0 74   49 41.0   9.2 9.2   0.2 S | 176 14.0   1.5 S | 181 0.01 12.9   0.0 59.0   0.6 0.01 45.5   0.5 64.1   6.6 44.6   23.7
Double Spring 5/3/26 1500 46.4   18.6 72   43 37.9   5.9 5.2   1.0 N | 1 13.4   1.5 N | 351 0.01 28.6   0.1 56.5   1.9 0.20 40.8   1.2 58.2   7.4 32.5   16.6
North Topaz Lake 5/3/26 1500 51.3   11.8 57   16 36.5   2.5 6.7   3.1 NNW | 335 13.4   2.8 NW | 317 0.00 9.2   0.0 61.1   6.9 0.06 46.2   5.4 61.1   6.8 32.3   20.7
Wild Oat Mountain 5/3/26 1500 47.9   15.5 70   36 38.6   4.1 4.9   1.8 SSE | 148 13.5   3.2 ESE | 103 0.00 16.6   0.1 58.9   0.9 0.03 45.2   6.7 58.8   6.9 36.5   23.6
Smith Valley 5/3/26 1500 57.4   14.3 45   22 36.5   3.8 12.4   6.7 SW | 228 24.5   10.3 W | 261 0.00 5.8   0.2 61.3   1.0 0.00 47.4   1.9 67.9   4.7 38.1   20.5
Pine Grove Mountain 5/3/26 1500 36.1   19.4 92   62 34.0   9.7 14.2   10.8 SSE | 149 23.5   13.7 SSE | 158 0.00 14.5   0.0 51.2   2.4 0.07 34.8   11.1 53.4   5.3 41.9   18.1
Paradise Hill 5/3/26 1500 73.2   0.4 18   1 27.3   1.4 11.4   5.4 SSW | 197 19.6   7.3 S | 176 0.00 8.1   0.1 59.2   1.4 0.00 45.6   6.7 76.3   2.1 30.7   13.2
Winnemucca 5/3/26 1500 73.2   0.7 17   0 25.8   0.4 6.8   0.2 ENE | 77 16.8   2.7 NE | 45 0.00 5.9   0.0 58.4   0.8 0.00 52.5   11.4 74.7   0.9 21.4   1.4
NE Elko 5/3/26 1500 70.6   0.2 14   2 18.3   3.8 3.0   4.3 SE | 126 7.1   8.7 SE | 130 0.00 12.4   0.0 59.8   1.6 0.00 40.4   11.8 71.7   0.1 29.2   12.9
North Elko 5/3/26 1500 69.4   1.1 14   1 18.8   2.3 6.1   0.3 NE | 37 13.9   1.4 NE | 41 0.00 28.5   0.1 55.9   1.5 0.00 49.4   7.0 70.1   0.4 19.1   0.8
South Elko 5/3/26 1500 66.3 18   26 21.0 5.1   0.2 N | 5 10.1   2.4 NNE | 31 0.00 18.9   0.1 56.9   1.4 0.00 49.9   3.5 - 13.3   6.8
Lamoille 1/28/26 1720 33.2   0.5 65   17 22.8   6.3 5.8   1.5 SSE | 166 7.7   1.9 SE | 139 0.00 12.2   0.0 33.4   0.1 0.02 23.5   2.0 36.5   5.9 25.6   17.4
Reid Gardner Sub 5/3/26 1500 91.1   4.5 13   4 33.5   13.4 11.3   4.5 SW | 214 20.5   8.2 SSW | 202 0.00 25.3   0.1 73.1   0.1 0.00 48.3   4.4 93.0   5.5 22.4   9.7
Corn Creek 5/3/26 1500 79.1   0.1 17   7 30.7   12.6 13.0   1.0 ENE | 59 28.4   6.6 ENE | 75 0.00 4.0   0.0 77.9   1.2 0.00 61.8   4.8 83.6   3.4 44.0   19.4
Lucky Strike 5/3/26 1500 68.0   1.2 20   7 25.0   12.0 8.0   0.7 SSW | 204 18.3   0.5 S | 190 0.00 4.5   0.0 70.2   1.0 0.00 56.6   2.2 70.2   1.9 32.4   7.5
Lower Angel Peak 5/3/26 1500 62.2   0.6 25   9 26.2   9.6 4.4   1.7 ESE | 123 17.6   1.7 ESE | 116 0.00 10.4   0.3 55.5   1.1 0.00 45.9   3.9 65.5   1.4 31.6   8.3
Angel Peak 5/3/26 1500 49.5   1.1 35   13 23.2   10.1 13.1   1.7 SSE | 150 22.1   3.0 SSE | 154 0.00 3.6   0.1 55.9   2.7 0.01 44.4   4.3 55.5   1.9 50.3   24.8
Upper Kyle Canyon 5/3/26 1500 53.2   4.7 33   13 24.6   7.5 2.5   4.8 NNE | 32 7.9   8.2 N | 9 0.00 13.8   0.0 53.4   1.7 0.00 42.1   4.5 56.6   2.2 30.4   11.8
Mt Charleston 5/3/26 1500 54.4   3.1 34   14 26.4   9.6 1.0   1.9 NNE | 21 5.7   4.3 NNE | 22 0.00 18.4   0.1 48.2   0.9 0.00 44.2   4.5 58.4   0.2 26.6   10.3
Mid Kyle Canyon 5/3/26 1500 62.7   0.7 26   9 27.4   10.0 5.4   5.2 S | 187 10.1   8.5 S | 174 0.00 7.1   0.0 57.7   1.5 0.00 47.3   4.3 65.9   2.1 30.6   9.2
Blue Diamond 5/3/26 1500 80.8   3.6 16   4 29.9   10.3 8.3   5.0 SW | 222 15.2   5.5 SSW | 194 0.00 3.6   0.0 67.6   0.4 0.00 46.2   0.8 81.9   3.6 21.1   4.3
Artesian Sub 5/3/26 1500 90.1   4.4 13   4 32.0   12.5 9.0   8.1 SE | 143 19.1   14.4 ESE | 115 0.00 13.4   0.0 73.3   0.2 0.00 62.9   0.1 92.0   4.5 23.8   9.9
North Henderson 5/3/26 1500 89.7   3.8 13   5 32.7   15.6 12.1   9.4 SSW | 193 16.9   11.2 SSE | 161 0.00 9.1   0.3 78.7   0.8 0.00 62.2   2.8 92.3   5.3 28.2   11.6
Sandy Valley 5/3/26 1500 85.3   3.4 14   4 31.5   10.7 15.0   8.6 SSW | 205 26.0   13.8 S | 190 0.00 4.5   0.1 78.0   0.5 0.00 54.4   10.8 85.9   3.3 31.4   3.6
Searchlight 5/3/26 1500 81.4   2.9 17   5 31.8   11.4 16.4   13.9 SSE | 157 25.8   17.4 SSE | 153 0.00 4.7   0.0 75.3   0.4 0.00 56.7   2.6 82.7   2.7 35.2   12.4
Laughlin 5/3/26 1500 95.4   2.3 13   3 35.9   9.6 17.6   14.2 SSE | 168 26.8   18.6 SSE | 156 0.00 4.1   0.0 83.4   1.3 0.00 68.7   3.5 96.7   2.7 33.4   12.5
Max     95.4 92 41.2 43.8 - 57.4 - 0.11 44.3 83.4 1.22 68.7 96.7 64.8
Avg     58.1 49 33.8 10.7 - 20.8 - 0.01 13.1 57.7 - - - -
Min     36.1 13 18.3 1.0 - 1.7 - 0.00 1.5 32.0 0.00 34.8 53.1 6.1